createdAt,value
2017-11-13T00:00:59.702Z,5.60
2017-11-13T00:03:26.390Z,7.47
2017-11-13T00:05:52.335Z,8.17
2017-11-13T00:08:18.313Z,5.87
2017-11-13T00:10:44.270Z,4.57
2017-11-13T00:13:11.018Z,4.30
2017-11-13T00:15:37.721Z,3.77
2017-11-13T00:18:03.682Z,4.60
2017-11-13T00:20:29.643Z,4.07
2017-11-13T00:22:55.627Z,4.30
2017-11-13T00:25:21.594Z,3.73
2017-11-13T00:27:47.566Z,3.33
2017-11-13T00:30:13.548Z,3.17
2017-11-13T00:32:39.489Z,3.00
2017-11-13T00:35:05.427Z,4.30
2017-11-13T00:37:31.411Z,3.50
2017-11-13T00:39:57.346Z,2.93
2017-11-13T00:42:23.286Z,3.53
2017-11-13T00:44:49.263Z,3.03
2017-11-13T00:47:15.206Z,2.93
2017-11-13T00:49:41.187Z,2.90
2017-11-13T00:52:07.127Z,3.10
2017-11-13T00:54:33.107Z,3.20
2017-11-13T00:56:59.073Z,3.77
2017-11-13T00:59:25.785Z,4.43
2017-11-13T01:01:51.739Z,3.70
2017-11-13T01:04:17.678Z,4.17
2017-11-13T01:06:43.655Z,4.10
2017-11-13T01:09:09.603Z,4.50
2017-11-13T01:11:35.542Z,5.33
2017-11-13T01:14:01.554Z,7.60
2017-11-13T01:16:27.493Z,3.40
2017-11-13T01:18:53.462Z,3.53
2017-11-13T01:21:19.406Z,7.90
2017-11-13T01:23:46.143Z,4.70
2017-11-13T01:26:12.090Z,4.33
2017-11-13T01:28:38.034Z,3.60
2017-11-13T01:31:04.011Z,7.33
2017-11-13T01:33:30.728Z,4.03
2017-11-13T01:35:56.698Z,3.53
2017-11-13T01:38:22.643Z,5.63
2017-11-13T01:40:48.606Z,6.37
2017-11-13T01:43:14.554Z,4.70
2017-11-13T01:45:40.521Z,5.50
2017-11-13T01:48:06.471Z,5.67
2017-11-13T01:50:33.187Z,6.50
2017-11-13T01:52:59.153Z,7.07
2017-11-13T01:55:25.863Z,7.90
2017-11-13T01:57:51.829Z,7.90
2017-11-13T02:00:17.773Z,9.03
2017-11-13T02:02:44.498Z,10.83
2017-11-13T02:05:10.434Z,8.33
2017-11-13T02:07:36.406Z,10.33
2017-11-13T02:10:03.118Z,9.10
2017-11-13T02:12:29.086Z,8.80
2017-11-13T02:14:55.754Z,9.10
2017-11-13T02:17:21.725Z,7.50
2017-11-13T02:19:47.659Z,10.00
2017-11-13T02:22:13.627Z,8.43
2017-11-13T02:24:39.560Z,7.80
2017-11-13T02:27:05.546Z,9.37
2017-11-13T02:29:31.483Z,9.60
2017-11-13T02:31:57.414Z,16.03
2017-11-13T02:34:23.374Z,8.20
2017-11-13T02:36:49.311Z,9.40
2017-11-13T02:39:15.284Z,11.47
2017-11-13T02:41:41.960Z,10.17
2017-11-13T02:44:07.931Z,10.23
2017-11-13T02:46:33.887Z,12.70
2017-11-13T02:48:59.888Z,8.00
2017-11-13T02:51:25.859Z,7.73
2017-11-13T02:53:51.814Z,10.50
2017-11-13T02:56:18.531Z,10.50
2017-11-13T02:58:44.483Z,13.83
2017-11-13T03:01:10.485Z,10.27
2017-11-13T03:03:36.427Z,8.97
2017-11-13T03:06:02.388Z,10.57
2017-11-13T03:08:29.870Z,10.37
2017-11-13T03:10:55.822Z,10.13
2017-11-13T03:13:22.519Z,14.07
2017-11-13T03:15:48.508Z,10.53
2017-11-13T03:18:15.202Z,12.37
2017-11-13T03:20:41.199Z,12.73
2017-11-13T03:23:07.887Z,15.67
2017-11-13T03:25:33.831Z,15.47
2017-11-13T03:27:59.828Z,14.77
2017-11-13T03:30:26.561Z,19.10
2017-11-13T03:32:52.543Z,13.57
2017-11-13T03:35:18.505Z,14.30
2017-11-13T03:37:44.465Z,13.97
2017-11-13T03:40:11.192Z,11.33
2017-11-13T03:42:37.144Z,14.40
2017-11-13T03:45:03.106Z,14.87
2017-11-13T03:47:29.118Z,12.90
2017-11-13T03:49:55.080Z,16.50
2017-11-13T03:52:21.767Z,12.20
2017-11-13T03:54:47.752Z,18.13
2017-11-13T03:57:13.753Z,20.90
2017-11-13T03:59:39.752Z,13.87
2017-11-13T04:02:05.716Z,13.20
2017-11-13T04:04:31.711Z,12.53
2017-11-13T04:06:58.449Z,11.90
2017-11-13T04:09:24.399Z,13.07
2017-11-13T04:11:51.103Z,15.30
2017-11-13T04:14:17.097Z,15.77
2017-11-13T04:16:43.055Z,17.53
2017-11-13T04:19:09.055Z,14.00
2017-11-13T04:21:35.743Z,18.77
2017-11-13T04:24:01.704Z,14.13
2017-11-13T04:26:27.692Z,14.77
2017-11-13T04:28:53.647Z,21.23
2017-11-13T04:31:19.678Z,18.03
2017-11-13T04:33:45.652Z,18.17
2017-11-13T04:36:11.612Z,15.93
2017-11-13T04:38:38.339Z,16.03
2017-11-13T04:41:04.301Z,19.17
2017-11-13T04:43:30.296Z,17.50
2017-11-13T04:45:56.254Z,20.07
2017-11-13T04:48:22.205Z,16.80
2017-11-13T04:50:48.208Z,18.80
2017-11-13T04:53:14.193Z,17.20
2017-11-13T04:55:40.934Z,13.90
2017-11-13T04:58:07.636Z,18.50
2017-11-13T05:00:33.589Z,18.27
2017-11-13T05:02:59.575Z,16.67
2017-11-13T05:05:26.268Z,14.93
2017-11-13T05:07:52.259Z,18.70
2017-11-13T05:10:18.947Z,16.47
2017-11-13T05:12:44.899Z,17.97
2017-11-13T05:15:10.879Z,18.47
2017-11-13T05:17:37.624Z,18.53
2017-11-13T05:20:04.330Z,23.30
2017-11-13T05:22:30.315Z,17.50
2017-11-13T05:24:57.063Z,18.50
2017-11-13T05:27:23.016Z,18.57
2017-11-13T05:29:49.743Z,21.53
2017-11-13T05:32:15.731Z,21.20
2017-11-13T05:34:41.730Z,25.13
2017-11-13T05:37:08.483Z,20.83
2017-11-13T05:39:35.177Z,17.70
2017-11-13T05:42:01.176Z,21.90
2017-11-13T05:44:27.908Z,19.93
2017-11-13T05:46:53.858Z,20.30
2017-11-13T05:49:20.655Z,20.23
2017-11-13T05:51:46.607Z,16.50
2017-11-13T05:54:12.617Z,20.10
2017-11-13T05:56:38.612Z,23.07
2017-11-13T05:59:06.847Z,22.63
2017-11-13T06:01:33.199Z,25.87
2017-11-13T06:03:59.148Z,25.57
2017-11-13T06:06:25.127Z,25.93
2017-11-13T06:08:51.891Z,23.07
2017-11-13T06:11:18.738Z,21.67
2017-11-13T06:13:45.521Z,29.77
2017-11-13T06:16:11.492Z,22.83
2017-11-13T06:18:37.448Z,24.83
2017-11-13T06:21:03.448Z,27.30
2017-11-13T06:23:29.447Z,29.00
2017-11-13T06:25:56.179Z,26.47
2017-11-13T06:28:22.136Z,28.13
2017-11-13T06:30:48.870Z,29.53
2017-11-13T06:33:15.572Z,24.80
2017-11-13T06:35:41.588Z,25.47
2017-11-13T06:38:07.543Z,31.10
2017-11-13T06:40:33.528Z,36.17
2017-11-13T06:42:59.519Z,34.40
2017-11-13T06:45:25.475Z,32.97
2017-11-13T06:47:51.480Z,29.00
2017-11-13T06:50:17.431Z,34.00
2017-11-13T06:52:43.387Z,32.63
2017-11-13T06:55:09.376Z,30.47
2017-11-13T06:57:35.323Z,27.20
2017-11-13T07:00:01.324Z,29.83
2017-11-13T07:02:28.051Z,26.33
2017-11-13T07:04:54.036Z,27.40
2017-11-13T07:07:19.991Z,32.83
2017-11-13T07:09:45.978Z,28.27
2017-11-13T07:12:12.676Z,33.40
2017-11-13T07:14:38.663Z,31.80
2017-11-13T07:17:05.359Z,31.20
2017-11-13T07:19:31.355Z,27.70
2017-11-13T07:21:58.059Z,32.50
2017-11-13T07:24:24.043Z,29.37
2017-11-13T07:26:50.739Z,27.97
2017-11-13T07:29:16.750Z,26.93
2017-11-13T07:31:42.767Z,24.97
2017-11-13T07:34:09.468Z,27.13
2017-11-13T07:36:35.468Z,24.73
2017-11-13T07:39:02.173Z,25.67
2017-11-13T07:41:28.160Z,30.40
2017-11-13T07:43:54.895Z,30.27
2017-11-13T07:46:21.600Z,27.70
2017-11-13T07:48:47.575Z,26.37
2017-11-13T07:51:13.568Z,29.00
2017-11-13T07:53:39.524Z,31.10
2017-11-13T07:56:05.520Z,31.27
2017-11-13T07:58:31.484Z,31.67
2017-11-13T08:00:57.448Z,34.47
2017-11-13T08:03:23.443Z,33.77
2017-11-13T08:05:49.400Z,34.10
2017-11-13T08:08:15.386Z,28.90
2017-11-13T08:10:42.079Z,32.37
2017-11-13T08:13:08.087Z,34.23
2017-11-13T08:15:34.034Z,35.07
2017-11-13T08:18:00.009Z,32.93
2017-11-13T08:20:25.996Z,34.80
2017-11-13T08:22:51.987Z,36.67
2017-11-13T08:25:17.967Z,37.53
2017-11-13T08:27:43.960Z,35.50
2017-11-13T08:30:09.972Z,36.07
2017-11-13T08:32:35.927Z,33.73
2017-11-13T08:35:01.876Z,30.00
2017-11-13T08:37:27.896Z,34.73
2017-11-13T08:39:53.858Z,33.40
2017-11-13T08:42:20.593Z,37.40
2017-11-13T08:44:46.544Z,34.13
2017-11-13T08:47:13.244Z,30.10
2017-11-13T08:49:39.235Z,30.60
2017-11-13T08:52:05.944Z,36.47
2017-11-13T08:54:31.936Z,37.77
2017-11-13T08:56:58.663Z,34.73
2017-11-13T08:59:24.612Z,32.67
2017-11-13T09:01:51.371Z,33.07
2017-11-13T09:04:18.102Z,31.93
2017-11-13T09:06:44.799Z,31.40
2017-11-13T09:09:10.779Z,36.80
2017-11-13T09:11:36.767Z,30.77
2017-11-13T09:14:02.724Z,29.77
2017-11-13T09:16:28.756Z,17.67
2017-11-13T09:18:54.738Z,16.40
2017-11-13T09:21:20.688Z,14.50
2017-11-13T09:23:47.432Z,11.80
2017-11-13T09:26:13.388Z,9.97
2017-11-13T09:28:40.112Z,10.53
2017-11-13T09:31:06.100Z,13.27
2017-11-13T09:33:32.048Z,9.13
2017-11-13T09:35:58.023Z,9.30
2017-11-13T09:38:24.749Z,14.40
2017-11-13T09:40:50.703Z,9.00
2017-11-13T09:43:16.691Z,11.60
2017-11-13T09:45:42.639Z,12.70
2017-11-13T09:48:08.632Z,11.73
2017-11-13T09:50:34.599Z,10.53
2017-11-13T09:53:00.539Z,11.63
2017-11-13T09:55:26.490Z,9.40
2017-11-13T09:57:52.484Z,11.07
2017-11-13T10:00:18.477Z,11.63
2017-11-13T10:02:44.435Z,13.07
2017-11-13T10:05:11.170Z,14.83
2017-11-13T10:07:37.154Z,17.00
2017-11-13T10:10:03.135Z,14.43
2017-11-13T10:12:29.115Z,16.40
2017-11-13T10:14:55.811Z,19.23
2017-11-13T10:17:21.799Z,20.67
2017-11-13T10:19:47.860Z,20.27
2017-11-13T10:22:13.812Z,21.63
2017-11-13T10:24:39.780Z,22.30
2017-11-13T10:27:05.790Z,23.87
2017-11-13T10:29:31.750Z,21.47
2017-11-13T10:31:57.778Z,22.73
2017-11-13T10:34:23.768Z,20.20
2017-11-13T10:36:50.496Z,26.50
2017-11-13T10:39:17.202Z,24.00
2017-11-13T10:41:43.164Z,24.93
2017-11-13T10:44:09.147Z,26.17
2017-11-13T10:46:35.101Z,25.10
2017-11-13T10:49:01.091Z,25.40
2017-11-13T10:51:27.792Z,26.20
2017-11-13T10:53:53.743Z,27.43
2017-11-13T10:56:19.742Z,32.43
2017-11-13T10:58:45.755Z,24.40
2017-11-13T11:01:12.452Z,24.30
2017-11-13T11:03:38.418Z,20.70
2017-11-13T11:06:04.428Z,20.77
2017-11-13T11:08:30.427Z,23.70
2017-11-13T11:10:57.127Z,21.67
2017-11-13T11:13:23.127Z,22.53
2017-11-13T11:15:50.887Z,19.83
2017-11-13T11:18:18.503Z,25.30
2017-11-13T11:20:50.660Z,19.23
2017-11-13T11:23:20.571Z,24.20
2017-11-13T11:25:50.386Z,24.87
2017-11-13T11:28:16.340Z,18.90
2017-11-13T11:30:43.075Z,17.10
2017-11-13T11:33:10.085Z,19.33
2017-11-13T11:35:36.062Z,20.43
2017-11-13T11:38:02.795Z,21.60
2017-11-13T11:40:29.597Z,19.23
2017-11-13T11:42:55.575Z,22.87
2017-11-13T11:45:29.670Z,18.97
2017-11-13T11:47:55.704Z,22.17
2017-11-13T11:50:21.656Z,20.60
2017-11-13T11:52:47.612Z,19.47
2017-11-13T11:55:23.579Z,14.60
2017-11-13T11:57:49.540Z,15.50
2017-11-13T12:00:15.532Z,19.73
2017-11-13T12:02:41.492Z,18.40
2017-11-13T12:05:07.476Z,17.17
2017-11-13T12:07:34.164Z,19.23
2017-11-13T12:10:00.143Z,16.27
2017-11-13T12:12:26.120Z,20.43
2017-11-13T12:14:52.064Z,18.67
2017-11-13T12:17:18.053Z,19.47
2017-11-13T12:19:44.746Z,15.80
2017-11-13T12:22:10.761Z,21.10
2017-11-13T12:24:37.444Z,19.10
2017-11-13T12:27:03.396Z,13.27
2017-11-13T12:29:29.424Z,17.17
2017-11-13T12:31:55.371Z,14.37
2017-11-13T12:34:21.334Z,14.10
2017-11-13T12:36:47.318Z,12.97
2017-11-13T12:39:13.277Z,18.47
2017-11-13T12:41:39.248Z,13.50
2017-11-13T12:44:05.975Z,16.20
2017-11-13T12:46:31.935Z,14.73
2017-11-13T12:48:58.670Z,15.30
2017-11-13T12:51:26.120Z,12.50
2017-11-13T12:53:52.112Z,13.90
2017-11-13T12:56:18.838Z,11.37
2017-11-13T12:58:44.801Z,13.80
2017-11-13T13:01:11.521Z,12.43
2017-11-13T13:03:37.479Z,13.67
2017-11-13T13:06:04.205Z,17.20
2017-11-13T13:08:30.204Z,13.20
2017-11-13T13:10:56.167Z,10.30
2017-11-13T13:13:22.156Z,11.27
2017-11-13T13:15:48.103Z,10.70
2017-11-13T13:18:14.087Z,14.77
2017-11-13T13:20:40.068Z,9.67
2017-11-13T13:23:06.097Z,10.37
2017-11-13T13:25:32.074Z,14.27
2017-11-13T13:27:58.044Z,11.03
2017-11-13T13:30:24.032Z,8.83
2017-11-13T13:32:50.011Z,12.40
2017-11-13T13:35:16.003Z,12.03
2017-11-13T13:37:41.976Z,11.57
2017-11-13T13:40:07.984Z,9.57
2017-11-13T13:42:33.952Z,9.80
2017-11-13T13:44:59.943Z,12.13
2017-11-13T13:47:25.924Z,10.90
2017-11-13T13:49:51.878Z,15.37
2017-11-13T13:52:18.616Z,12.17
2017-11-13T13:54:44.564Z,9.33
2017-11-13T13:57:12.039Z,10.00
2017-11-13T13:59:38.779Z,12.40
2017-11-13T14:02:04.772Z,11.97
2017-11-13T14:04:30.771Z,10.63
2017-11-13T14:06:57.463Z,9.47
2017-11-13T14:09:23.419Z,10.73
2017-11-13T14:11:49.411Z,13.33
2017-11-13T14:14:15.403Z,12.50
2017-11-13T14:16:41.395Z,12.17
2017-11-13T14:19:07.385Z,12.73
2017-11-13T14:21:33.335Z,10.67
2017-11-13T14:24:00.083Z,10.90
2017-11-13T14:26:26.779Z,11.93
2017-11-13T14:28:52.736Z,16.23
2017-11-13T14:31:18.772Z,11.17
2017-11-13T14:33:44.716Z,8.20
2017-11-13T14:36:10.679Z,10.53
2017-11-13T14:38:37.423Z,8.00
2017-11-13T14:41:04.116Z,10.37
2017-11-13T14:43:30.068Z,10.27
2017-11-13T14:45:56.061Z,10.17
2017-11-13T14:48:22.023Z,12.60
2017-11-13T14:50:48.015Z,7.80
2017-11-13T14:53:13.971Z,11.73
2017-11-13T14:55:40.712Z,10.57
2017-11-13T14:58:07.450Z,12.67
2017-11-13T15:00:33.404Z,10.07
2017-11-13T15:03:00.140Z,15.20
2017-11-13T15:05:26.142Z,9.60
2017-11-13T15:07:52.095Z,11.67
2017-11-13T15:10:18.048Z,8.57
2017-11-13T15:12:44.031Z,11.00
2017-11-13T15:15:09.995Z,9.37
2017-11-13T15:17:35.986Z,6.90
2017-11-13T15:20:01.952Z,8.60
2017-11-13T15:22:27.911Z,9.13
2017-11-13T15:24:53.910Z,7.87
2017-11-13T15:27:19.866Z,9.07
2017-11-13T15:29:45.872Z,8.63
2017-11-13T15:32:11.904Z,15.00
2017-11-13T15:34:38.603Z,8.90
2017-11-13T15:37:04.570Z,9.87
2017-11-13T15:39:30.556Z,10.43
2017-11-13T15:41:56.507Z,10.47
2017-11-13T15:44:22.496Z,10.83
2017-11-13T15:46:49.187Z,8.90
2017-11-13T15:49:15.188Z,10.83
2017-11-13T15:51:41.912Z,10.90
2017-11-13T15:54:07.892Z,10.60
2017-11-13T15:56:33.899Z,9.53
2017-11-13T15:59:00.627Z,10.67
2017-11-13T16:01:26.651Z,11.70
2017-11-13T16:03:52.599Z,12.13
2017-11-13T16:06:18.551Z,13.23
2017-11-13T16:08:45.286Z,10.30
2017-11-13T16:11:11.256Z,12.57
2017-11-13T16:13:37.983Z,11.83
2017-11-13T16:16:03.979Z,10.23
2017-11-13T16:18:29.922Z,10.20
2017-11-13T16:20:55.875Z,13.67
2017-11-13T16:23:21.862Z,9.87
2017-11-13T16:25:47.855Z,10.43
2017-11-13T16:28:13.808Z,11.20
2017-11-13T16:30:39.809Z,15.03
2017-11-13T16:33:05.760Z,16.37
2017-11-13T16:35:31.765Z,13.70
2017-11-13T16:37:57.710Z,14.83
2017-11-13T16:40:23.675Z,11.93
2017-11-13T16:42:49.706Z,13.00
2017-11-13T16:45:16.437Z,15.40
2017-11-13T16:47:42.419Z,14.93
2017-11-13T16:50:09.189Z,14.17
2017-11-13T16:52:35.139Z,19.13
2017-11-13T16:55:01.116Z,12.27
2017-11-13T16:57:27.177Z,14.20
2017-11-13T16:59:53.178Z,13.83
2017-11-13T17:02:19.171Z,13.80
2017-11-13T17:04:45.947Z,11.57
2017-11-13T17:07:11.939Z,10.80
2017-11-13T17:09:37.944Z,16.53
2017-11-13T17:12:03.899Z,11.90
2017-11-13T17:14:29.915Z,15.80
2017-11-13T17:16:55.875Z,13.97
2017-11-13T17:19:21.872Z,15.53
2017-11-13T17:21:47.833Z,16.50
2017-11-13T17:24:13.778Z,23.90
2017-11-13T17:26:39.810Z,17.93
2017-11-13T17:29:05.783Z,17.27
2017-11-13T17:31:32.475Z,15.47
2017-11-13T17:33:58.475Z,20.30
2017-11-13T17:36:24.476Z,18.23
2017-11-13T17:38:50.515Z,16.53
2017-11-13T17:41:16.519Z,19.13
2017-11-13T17:43:42.471Z,20.13
2017-11-13T17:46:08.467Z,18.30
2017-11-13T17:48:34.467Z,18.80
2017-11-13T17:51:01.216Z,16.23
2017-11-13T17:53:27.168Z,18.30
2017-11-13T17:55:53.901Z,21.73
2017-11-13T17:58:19.939Z,15.70
2017-11-13T18:00:45.895Z,17.73
2017-11-13T18:03:12.626Z,18.37
2017-11-13T18:05:38.635Z,16.73
2017-11-13T18:08:04.596Z,16.70
2017-11-13T18:10:31.288Z,17.30
2017-11-13T18:12:57.266Z,18.93
2017-11-13T18:15:23.275Z,18.73
2017-11-13T18:17:49.220Z,18.27
2017-11-13T18:20:15.188Z,19.70
2017-11-13T18:22:41.179Z,19.60
2017-11-13T18:25:07.158Z,18.97
2017-11-13T18:27:33.109Z,17.40
2017-11-13T18:29:59.122Z,19.00
2017-11-13T18:32:25.082Z,26.80
2017-11-13T18:34:51.787Z,20.23
2017-11-13T18:37:17.775Z,19.17
2017-11-13T18:39:43.732Z,16.80
2017-11-13T18:42:10.470Z,24.67
2017-11-13T18:44:37.167Z,21.60
2017-11-13T18:47:03.164Z,28.40
2017-11-13T18:49:29.947Z,20.87
2017-11-13T18:51:55.931Z,19.53
2017-11-13T18:54:23.359Z,18.90
2017-11-13T18:56:49.343Z,19.20
2017-11-13T18:59:16.091Z,17.10
2017-11-13T19:01:42.895Z,21.83
2017-11-13T19:04:08.864Z,19.23
2017-11-13T19:06:34.864Z,19.13
2017-11-13T19:09:00.818Z,22.10
2017-11-13T19:11:26.792Z,16.33
2017-11-13T19:13:52.779Z,16.60
2017-11-13T19:16:18.739Z,16.87
2017-11-13T19:18:44.734Z,19.53
2017-11-13T19:21:10.699Z,19.03
2017-11-13T19:23:36.714Z,20.70
2017-11-13T19:26:02.671Z,15.77
2017-11-13T19:28:28.619Z,16.60
2017-11-13T19:30:54.633Z,15.80
2017-11-13T19:33:20.614Z,17.83
2017-11-13T19:35:48.100Z,18.63
2017-11-13T19:38:14.087Z,18.27
2017-11-13T19:40:40.106Z,15.90
2017-11-13T19:43:06.158Z,14.43
2017-11-13T19:45:32.115Z,16.97
2017-11-13T19:47:58.114Z,14.67
2017-11-13T19:50:24.079Z,15.40
2017-11-13T19:52:50.042Z,14.40
2017-11-13T19:55:16.775Z,17.63
2017-11-13T19:57:42.727Z,16.17
2017-11-13T20:00:08.735Z,13.00
2017-11-13T20:02:34.719Z,14.93
2017-11-13T20:05:01.424Z,13.40
2017-11-13T20:07:27.416Z,12.03
2017-11-13T20:09:54.130Z,16.10
2017-11-13T20:12:20.090Z,16.90
2017-11-13T20:14:46.075Z,11.53
2017-11-13T20:17:12.057Z,14.13
2017-11-13T20:19:38.067Z,14.83
2017-11-13T20:22:04.023Z,14.40
2017-11-13T20:24:29.974Z,16.63
2017-11-13T20:26:56.695Z,17.50
2017-11-13T20:29:22.650Z,14.80
2017-11-13T20:31:48.639Z,14.07
2017-11-13T20:34:14.634Z,19.07
2017-11-13T20:36:40.612Z,15.10
2017-11-13T20:39:06.567Z,14.90
2017-11-13T20:41:32.567Z,14.47
2017-11-13T20:43:58.586Z,14.97
2017-11-13T20:46:25.327Z,17.00
2017-11-13T20:48:51.341Z,14.33
2017-11-13T20:51:17.335Z,14.73
2017-11-13T20:53:43.341Z,16.23
2017-11-13T20:56:09.327Z,19.47
2017-11-13T20:58:35.359Z,17.33
2017-11-13T21:01:01.311Z,18.50
2017-11-13T21:03:27.279Z,20.43
2017-11-13T21:05:53.988Z,20.50
2017-11-13T21:08:19.965Z,18.60
2017-11-13T21:10:45.921Z,18.20
2017-11-13T21:13:12.643Z,21.33
2017-11-13T21:15:38.611Z,16.10
2017-11-13T21:18:05.340Z,18.53
2017-11-13T21:20:31.296Z,23.80
2017-11-13T21:22:58.027Z,19.03
2017-11-13T21:25:23.999Z,16.93
2017-11-13T21:27:49.959Z,21.17
2017-11-13T21:30:15.932Z,20.60
2017-11-13T21:32:41.891Z,24.60
2017-11-13T21:35:08.675Z,21.30
2017-11-13T21:37:34.624Z,23.40
2017-11-13T21:40:00.580Z,25.80
2017-11-13T21:42:26.550Z,21.40
2017-11-13T21:44:53.280Z,20.27
2017-11-13T21:47:19.280Z,17.17
2017-11-13T21:49:45.243Z,19.33
2017-11-13T21:52:11.207Z,21.20
2017-11-13T21:54:37.951Z,27.20
2017-11-13T21:57:03.925Z,22.90
2017-11-13T21:59:29.934Z,18.90
2017-11-13T22:01:56.662Z,23.00
2017-11-13T22:04:22.631Z,21.10
2017-11-13T22:06:49.343Z,17.40
2017-11-13T22:09:15.344Z,18.80
2017-11-13T22:11:41.316Z,18.83
2017-11-13T22:14:07.305Z,24.40
2017-11-13T22:16:33.455Z,25.37
2017-11-13T22:18:59.406Z,23.10
2017-11-13T22:21:25.415Z,19.90
2017-11-13T22:23:51.384Z,22.00
2017-11-13T22:26:17.334Z,23.83
2017-11-13T22:28:43.339Z,19.73
2017-11-13T22:31:09.311Z,20.37
2017-11-13T22:33:35.295Z,19.83
2017-11-13T22:36:01.279Z,20.40
2017-11-13T22:38:27.281Z,25.50
2017-11-13T22:40:53.243Z,20.80
2017-11-13T22:43:19.231Z,20.50
2017-11-13T22:45:45.207Z,21.77
2017-11-13T22:48:11.233Z,23.47
2017-11-13T22:50:37.192Z,20.13
2017-11-13T22:53:03.152Z,21.83
2017-11-13T22:55:29.887Z,26.87
2017-11-13T22:57:55.879Z,23.80
2017-11-13T23:00:21.874Z,18.13
2017-11-13T23:02:48.766Z,22.63
2017-11-13T23:05:15.447Z,20.00
2017-11-13T23:07:41.435Z,19.67
2017-11-13T23:10:08.144Z,25.87
2017-11-13T23:12:34.123Z,21.83
2017-11-13T23:15:00.806Z,23.30
2017-11-13T23:17:26.745Z,20.57
2017-11-13T23:19:52.706Z,18.70
2017-11-13T23:22:18.668Z,20.00
2017-11-13T23:24:44.610Z,21.63
2017-11-13T23:27:10.585Z,23.73
2017-11-13T23:29:36.553Z,20.60
2017-11-13T23:32:02.487Z,21.63
2017-11-13T23:34:28.446Z,23.90
2017-11-13T23:36:54.401Z,31.23
2017-11-13T23:39:21.133Z,23.30
2017-11-13T23:41:47.094Z,21.50
2017-11-13T23:44:13.790Z,21.33
2017-11-13T23:46:39.744Z,19.90
2017-11-13T23:49:05.688Z,26.93
2017-11-13T23:51:31.745Z,20.53
2017-11-13T23:53:57.689Z,22.17
2017-11-13T23:56:24.413Z,24.10
2017-11-13T23:58:50.385Z,20.40
